sensor_id;sensor_type;location;lat;lon;timestamp;pressure;altitude;pressure_sealevel;temperature;humidity
40954;BME280;26686;50.130;8.710;2023-07-29T00:01:47;99570.09;;;19.67;100.00
40954;BME280;26686;50.130;8.710;2023-07-29T00:06:50;99566.78;;;19.72;100.00
40954;BME280;26686;50.130;8.710;2023-07-29T00:11:52;99560.75;;;19.70;100.00
40954;BME280;26686;50.130;8.710;2023-07-29T00:16:55;99549.56;;;19.73;100.00
40954;BME280;26686;50.130;8.710;2023-07-29T00:21:57;99543.38;;;19.79;100.00
40954;BME280;26686;50.130;8.710;2023-07-29T00:26:58;99543.38;;;19.79;100.00
40954;BME280;26686;50.130;8.710;2023-07-29T00:32:00;99538.56;;;19.74;100.00
40954;BME280;26686;50.130;8.710;2023-07-29T00:37:01;99546.66;;;19.74;100.00
40954;BME280;26686;50.130;8.710;2023-07-29T00:42:03;99536.25;;;19.71;100.00
40954;BME280;26686;50.130;8.710;2023-07-29T00:47:05;99514.66;;;19.71;100.00
40954;BME280;26686;50.130;8.710;2023-07-29T00:52:08;99524.81;;;19.69;100.00
40954;BME280;26686;50.130;8.710;2023-07-29T00:57:13;99508.22;;;19.72;100.00
40954;BME280;26686;50.130;8.710;2023-07-29T01:02:16;99505.91;;;19.69;100.00
40954;BME280;26686;50.130;8.710;2023-07-29T01:07:27;99505.50;;;19.72;100.00
40954;BME280;26686;50.130;8.710;2023-07-29T01:17:59;99514.50;;;19.80;100.00
40954;BME280;26686;50.130;8.710;2023-07-29T01:23:04;99509.47;;;19.76;100.00
40954;BME280;26686;50.130;8.710;2023-07-29T01:28:05;99490.97;;;19.73;100.00
40954;BME280;26686;50.130;8.710;2023-07-29T01:33:13;99501.22;;;19.78;100.00
40954;BME280;26686;50.130;8.710;2023-07-29T01:38:21;99501.38;;;19.76;100.00
40954;BME280;26686;50.130;8.710;2023-07-29T01:43:24;99500.56;;;19.76;100.00
40954;BME280;26686;50.130;8.710;2023-07-29T01:48:27;99495.97;;;19.76;100.00
40954;BME280;26686;50.130;8.710;2023-07-29T01:53:31;99494.72;;;19.72;100.00
40954;BME280;26686;50.130;8.710;2023-07-29T01:58:33;99477.06;;;19.76;100.00
40954;BME280;26686;50.130;8.710;2023-07-29T02:03:34;99483.50;;;19.75;100.00
40954;BME280;26686;50.130;8.710;2023-07-29T02:08:36;99477.47;;;19.73;100.00
40954;BME280;26686;50.130;8.710;2023-07-29T02:13:37;99474.78;;;19.73;100.00
40954;BME280;26686;50.130;8.710;2023-07-29T02:18:38;99479.16;;;19.74;100.00
40954;BME280;26686;50.130;8.710;2023-07-29T02:23:40;99474.00;;;19.80;100.00
40954;BME280;26686;50.130;8.710;2023-07-29T02:28:41;99463.00;;;19.81;100.00
40954;BME280;26686;50.130;8.710;2023-07-29T02:33:43;99465.50;;;19.83;100.00
40954;BME280;26686;50.130;8.710;2023-07-29T02:38:45;99454.28;;;19.79;100.00
40954;BME280;26686;50.130;8.710;2023-07-29T02:43:50;99459.69;;;19.86;100.00
40954;BME280;26686;50.130;8.710;2023-07-29T02:48:51;99466.16;;;19.85;100.00
40954;BME280;26686;50.130;8.710;2023-07-29T02:53:53;99462.78;;;19.83;100.00
40954;BME280;26686;50.130;8.710;2023-07-29T02:58:54;99447.66;;;19.82;100.00
40954;BME280;26686;50.130;8.710;2023-07-29T03:03:55;99432.47;;;19.81;100.00
40954;BME280;26686;50.130;8.710;2023-07-29T03:08:57;99454.06;;;19.81;100.00
40954;BME280;26686;50.130;8.710;2023-07-29T03:13:58;99426.59;;;19.77;100.00
40954;BME280;26686;50.130;8.710;2023-07-29T03:19:00;99422.00;;;19.71;100.00
40954;BME280;26686;50.130;8.710;2023-07-29T03:24:01;99427.63;;;19.69;100.00
40954;BME280;26686;50.130;8.710;2023-07-29T03:29:03;99416.19;;;19.67;100.00
40954;BME280;26686;50.130;8.710;2023-07-29T03:34:04;99405.41;;;19.67;100.00
40954;BME280;26686;50.130;8.710;2023-07-29T03:39:06;99407.50;;;19.65;100.00
40954;BME280;26686;50.130;8.710;2023-07-29T03:44:08;99410.81;;;19.67;100.00
40954;BME280;26686;50.130;8.710;2023-07-29T03:49:10;99410.75;;;19.60;100.00
40954;BME280;26686;50.130;8.710;2023-07-29T03:54:12;99408.47;;;19.57;100.00
40954;BME280;26686;50.130;8.710;2023-07-29T03:59:13;99413.47;;;19.60;100.00
40954;BME280;26686;50.130;8.710;2023-07-29T04:04:15;99404.53;;;19.60;100.00
40954;BME280;26686;50.130;8.710;2023-07-29T04:09:17;99399.38;;;19.65;100.00
40954;BME280;26686;50.130;8.710;2023-07-29T04:14:18;99412.03;;;19.65;100.00
40954;BME280;26686;50.130;8.710;2023-07-29T04:19:20;99410.56;;;19.62;100.00
40954;BME280;26686;50.130;8.710;2023-07-29T04:24:21;99412.66;;;19.60;100.00
40954;BME280;26686;50.130;8.710;2023-07-29T04:29:24;99415.53;;;19.58;100.00
40954;BME280;26686;50.130;8.710;2023-07-29T04:34:25;99412.44;;;19.61;100.00
40954;BME280;26686;50.130;8.710;2023-07-29T04:39:27;99404.53;;;19.60;100.00
40954;BME280;26686;50.130;8.710;2023-07-29T04:44:28;99387.09;;;19.56;100.00
40954;BME280;26686;50.130;8.710;2023-07-29T04:49:30;99387.72;;;19.58;100.00
40954;BME280;26686;50.130;8.710;2023-07-29T04:54:31;99399.16;;;19.60;100.00
40954;BME280;26686;50.130;8.710;2023-07-29T04:59:32;99389.59;;;19.57;100.00
40954;BME280;26686;50.130;8.710;2023-07-29T05:04:34;99390.84;;;19.55;100.00
40954;BME280;26686;50.130;8.710;2023-07-29T05:09:35;99388.34;;;19.60;100.00
40954;BME280;26686;50.130;8.710;2023-07-29T05:14:37;99383.41;;;19.64;100.00
40954;BME280;26686;50.130;8.710;2023-07-29T05:19:38;99385.03;;;19.65;100.00
40954;BME280;26686;50.130;8.710;2023-07-29T05:24:40;99386.28;;;19.62;100.00
40954;BME280;26686;50.130;8.710;2023-07-29T05:29:41;99381.72;;;19.63;100.00
40954;BME280;26686;50.130;8.710;2023-07-29T05:34:43;99402.09;;;19.65;100.00
40954;BME280;26686;50.130;8.710;2023-07-29T05:39:45;99412.47;;;19.68;100.00
40954;BME280;26686;50.130;8.710;2023-07-29T05:44:46;99416.00;;;19.69;100.00
40954;BME280;26686;50.130;8.710;2023-07-29T05:49:47;99425.13;;;19.61;100.00
40954;BME280;26686;50.130;8.710;2023-07-29T05:54:49;99425.72;;;19.63;100.00
40954;BME280;26686;50.130;8.710;2023-07-29T05:59:50;99426.59;;;19.64;100.00
40954;BME280;26686;50.130;8.710;2023-07-29T06:04:52;99439.03;;;19.65;100.00
40954;BME280;26686;50.130;8.710;2023-07-29T06:09:53;99433.44;;;19.66;100.00
40954;BME280;26686;50.130;8.710;2023-07-29T06:14:56;99441.13;;;19.69;100.00
40954;BME280;26686;50.130;8.710;2023-07-29T06:19:57;99429.09;;;19.65;100.00
40954;BME280;26686;50.130;8.710;2023-07-29T06:24:59;99429.50;;;19.69;100.00
40954;BME280;26686;50.130;8.710;2023-07-29T06:30:01;99448.19;;;19.64;100.00
40954;BME280;26686;50.130;8.710;2023-07-29T06:35:02;99465.41;;;19.63;100.00
40954;BME280;26686;50.130;8.710;2023-07-29T06:40:04;99450.88;;;19.64;100.00
40954;BME280;26686;50.130;8.710;2023-07-29T06:45:07;99415.75;;;19.57;100.00
40954;BME280;26686;50.130;8.710;2023-07-29T06:50:08;99432.81;;;19.64;100.00
40954;BME280;26686;50.130;8.710;2023-07-29T06:55:10;99429.47;;;19.62;100.00
40954;BME280;26686;50.130;8.710;2023-07-29T07:00:11;99446.31;;;19.64;100.00
40954;BME280;26686;50.130;8.710;2023-07-29T07:05:13;99441.53;;;19.66;100.00
40954;BME280;26686;50.130;8.710;2023-07-29T07:10:14;99449.63;;;19.66;100.00
40954;BME280;26686;50.130;8.710;2023-07-29T07:15:16;99442.75;;;19.57;100.00
40954;BME280;26686;50.130;8.710;2023-07-29T07:20:17;99422.41;;;19.61;100.00
40954;BME280;26686;50.130;8.710;2023-07-29T07:25:19;99435.31;;;19.66;100.00
40954;BME280;26686;50.130;8.710;2023-07-29T07:30:20;99439.03;;;19.65;100.00
40954;BME280;26686;50.130;8.710;2023-07-29T07:35:22;99441.72;;;19.65;100.00
40954;BME280;26686;50.130;8.710;2023-07-29T07:40:24;99466.47;;;19.68;100.00
40954;BME280;26686;50.130;8.710;2023-07-29T07:45:25;99461.69;;;19.70;100.00
40954;BME280;26686;50.130;8.710;2023-07-29T07:50:29;99470.59;;;19.71;100.00
40954;BME280;26686;50.130;8.710;2023-07-29T07:55:31;99473.09;;;19.72;100.00
40954;BME280;26686;50.130;8.710;2023-07-29T08:00:33;99464.38;;;19.70;100.00
40954;BME280;26686;50.130;8.710;2023-07-29T08:05:34;99480.59;;;19.70;100.00
40954;BME280;26686;50.130;8.710;2023-07-29T08:10:36;99478.09;;;19.69;100.00
40954;BME280;26686;50.130;8.710;2023-07-29T08:15:37;99482.66;;;19.68;100.00
40954;BME280;26686;50.130;8.710;2023-07-29T08:20:56;99475.81;;;19.72;100.00
40954;BME280;26686;50.130;8.710;2023-07-29T08:26:01;99477.56;;;19.87;100.00
40954;BME280;26686;50.130;8.710;2023-07-29T08:31:03;99468.47;;;20.01;100.00
40954;BME280;26686;50.130;8.710;2023-07-29T08:36:05;99487.00;;;20.18;100.00
40954;BME280;26686;50.130;8.710;2023-07-29T08:41:16;99470.16;;;20.29;100.00
40954;BME280;26686;50.130;8.710;2023-07-29T08:46:19;99459.78;;;20.46;100.00
40954;BME280;26686;50.130;8.710;2023-07-29T08:51:21;99459.78;;;20.59;100.00
40954;BME280;26686;50.130;8.710;2023-07-29T08:56:24;99476.88;;;20.73;100.00
40954;BME280;26686;50.130;8.710;2023-07-29T09:01:26;99481.25;;;20.81;100.00
40954;BME280;26686;50.130;8.710;2023-07-29T09:06:28;99478.28;;;21.02;100.00
40954;BME280;26686;50.130;8.710;2023-07-29T09:11:30;99458.25;;;21.24;100.00
40954;BME280;26686;50.130;8.710;2023-07-29T09:16:32;99470.44;;;21.60;100.00
40954;BME280;26686;50.130;8.710;2023-07-29T09:21:38;99471.06;;;21.62;100.00
40954;BME280;26686;50.130;8.710;2023-07-29T09:26:40;99464.09;;;21.79;99.62
40954;BME280;26686;50.130;8.710;2023-07-29T09:31:49;99463.38;;;22.04;99.82
40954;BME280;26686;50.130;8.710;2023-07-29T09:36:51;99465.00;;;22.05;95.54
40954;BME280;26686;50.130;8.710;2023-07-29T09:41:53;99467.91;;;22.10;93.00
40954;BME280;26686;50.130;8.710;2023-07-29T09:46:54;99464.19;;;21.98;90.03
40954;BME280;26686;50.130;8.710;2023-07-29T09:51:56;99467.75;;;21.98;92.21
40954;BME280;26686;50.130;8.710;2023-07-29T09:56:57;99469.91;;;22.21;89.15
40954;BME280;26686;50.130;8.710;2023-07-29T10:01:59;99467.97;;;22.35;87.63
40954;BME280;26686;50.130;8.710;2023-07-29T10:07:01;99482.56;;;22.34;87.45
40954;BME280;26686;50.130;8.710;2023-07-29T10:12:05;99461.09;;;22.33;88.69
40954;BME280;26686;50.130;8.710;2023-07-29T10:17:07;99454.13;;;22.44;86.70
40954;BME280;26686;50.130;8.710;2023-07-29T10:22:10;99447.81;;;22.75;85.49
40954;BME280;26686;50.130;8.710;2023-07-29T10:27:15;99440.91;;;22.98;84.75
40954;BME280;26686;50.130;8.710;2023-07-29T10:32:19;99442.31;;;23.25;83.08
40954;BME280;26686;50.130;8.710;2023-07-29T10:37:23;99438.25;;;23.35;83.40
40954;BME280;26686;50.130;8.710;2023-07-29T10:42:25;99437.88;;;23.80;81.87
40954;BME280;26686;50.130;8.710;2023-07-29T10:47:28;99437.72;;;23.93;76.26
40954;BME280;26686;50.130;8.710;2023-07-29T10:57:37;99441.13;;;23.89;76.24
40954;BME280;26686;50.130;8.710;2023-07-29T11:02:39;99432.91;;;24.07;76.61
40954;BME280;26686;50.130;8.710;2023-07-29T11:07:45;99440.41;;;24.24;75.11
40954;BME280;26686;50.130;8.710;2023-07-29T11:12:48;99438.66;;;23.87;73.04
40954;BME280;26686;50.130;8.710;2023-07-29T11:18:01;99425.41;;;23.60;79.86
40954;BME280;26686;50.130;8.710;2023-07-29T11:23:03;99418.91;;;23.43;81.27
40954;BME280;26686;50.130;8.710;2023-07-29T11:28:05;99435.59;;;23.28;83.42
40954;BME280;26686;50.130;8.710;2023-07-29T11:33:20;99416.53;;;23.35;83.74
40954;BME280;26686;50.130;8.710;2023-07-29T11:38:26;99419.16;;;23.72;82.82
40954;BME280;26686;50.130;8.710;2023-07-29T11:43:29;99421.09;;;24.13;79.73
40954;BME280;26686;50.130;8.710;2023-07-29T11:48:37;99435.75;;;24.78;73.58
40954;BME280;26686;50.130;8.710;2023-07-29T11:53:41;99427.91;;;25.05;70.28
40954;BME280;26686;50.130;8.710;2023-07-29T11:58:44;99414.53;;;25.16;70.91
40954;BME280;26686;50.130;8.710;2023-07-29T12:03:46;99414.41;;;25.34;68.16
40954;BME280;26686;50.130;8.710;2023-07-29T12:08:48;99413.56;;;25.34;71.51
40954;BME280;26686;50.130;8.710;2023-07-29T12:13:55;99415.13;;;25.18;68.63
40954;BME280;26686;50.130;8.710;2023-07-29T12:19:00;99388.41;;;25.55;68.08
40954;BME280;26686;50.130;8.710;2023-07-29T12:24:02;99387.56;;;25.55;64.33
40954;BME280;26686;50.130;8.710;2023-07-29T12:29:14;99383.81;;;25.44;64.24
40954;BME280;26686;50.130;8.710;2023-07-29T12:34:19;99382.88;;;25.38;63.37
40954;BME280;26686;50.130;8.710;2023-07-29T12:39:24;99385.97;;;25.42;64.76
40954;BME280;26686;50.130;8.710;2023-07-29T12:44:29;99379.50;;;25.60;62.18
40954;BME280;26686;50.130;8.710;2023-07-29T12:49:31;99369.28;;;25.67;63.33
40954;BME280;26686;50.130;8.710;2023-07-29T12:54:32;99369.09;;;25.57;60.25
40954;BME280;26686;50.130;8.710;2023-07-29T12:59:34;99387.06;;;25.58;62.33
40954;BME280;26686;50.130;8.710;2023-07-29T13:04:35;99377.78;;;25.42;57.14
40954;BME280;26686;50.130;8.710;2023-07-29T13:09:36;99363.84;;;25.27;60.91
40954;BME280;26686;50.130;8.710;2023-07-29T13:14:38;99376.06;;;25.12;57.27
40954;BME280;26686;50.130;8.710;2023-07-29T13:19:39;99365.69;;;24.97;57.92
40954;BME280;26686;50.130;8.710;2023-07-29T13:24:41;99376.09;;;24.88;59.71
40954;BME280;26686;50.130;8.710;2023-07-29T13:29:42;99380.13;;;24.86;59.69
40954;BME280;26686;50.130;8.710;2023-07-29T13:34:44;99376.56;;;24.97;59.40
40954;BME280;26686;50.130;8.710;2023-07-29T13:39:46;99367.97;;;25.29;58.87
40954;BME280;26686;50.130;8.710;2023-07-29T13:44:47;99367.22;;;25.46;58.83
40954;BME280;26686;50.130;8.710;2023-07-29T13:49:49;99376.50;;;25.45;56.58
40954;BME280;26686;50.130;8.710;2023-07-29T13:54:50;99372.75;;;25.63;56.34
40954;BME280;26686;50.130;8.710;2023-07-29T13:59:51;99377.53;;;25.72;56.00
40954;BME280;26686;50.130;8.710;2023-07-29T14:04:53;99374.25;;;25.70;57.10
40954;BME280;26686;50.130;8.710;2023-07-29T14:09:54;99388.25;;;25.62;55.56
40954;BME280;26686;50.130;8.710;2023-07-29T14:14:56;99389.91;;;25.63;54.97
40954;BME280;26686;50.130;8.710;2023-07-29T14:19:57;99382.31;;;25.65;54.18
40954;BME280;26686;50.130;8.710;2023-07-29T14:24:59;99400.19;;;25.61;53.53
40954;BME280;26686;50.130;8.710;2023-07-29T14:30:02;99394.19;;;25.59;53.19
40954;BME280;26686;50.130;8.710;2023-07-29T14:35:03;99386.50;;;25.56;53.81
40954;BME280;26686;50.130;8.710;2023-07-29T14:40:06;99399.13;;;25.62;54.42
40954;BME280;26686;50.130;8.710;2023-07-29T14:45:07;99383.47;;;25.69;53.25
40954;BME280;26686;50.130;8.710;2023-07-29T14:50:09;99369.59;;;25.71;50.55
40954;BME280;26686;50.130;8.710;2023-07-29T14:55:10;99378.72;;;25.76;51.65
40954;BME280;26686;50.130;8.710;2023-07-29T15:00:12;99363.66;;;25.74;49.70
40954;BME280;26686;50.130;8.710;2023-07-29T15:05:14;99365.56;;;25.73;50.19
40954;BME280;26686;50.130;8.710;2023-07-29T15:10:16;99376.56;;;25.79;49.19
40954;BME280;26686;50.130;8.710;2023-07-29T15:15:17;99368.28;;;25.73;50.41
40954;BME280;26686;50.130;8.710;2023-07-29T15:20:19;99369.44;;;25.77;48.52
40954;BME280;26686;50.130;8.710;2023-07-29T15:25:20;99370.41;;;25.71;48.22
40954;BME280;26686;50.130;8.710;2023-07-29T15:30:22;99370.91;;;25.68;48.80
40954;BME280;26686;50.130;8.710;2023-07-29T15:35:23;99372.09;;;25.72;49.29
40954;BME280;26686;50.130;8.710;2023-07-29T15:40:24;99378.19;;;25.63;48.04
40954;BME280;26686;50.130;8.710;2023-07-29T15:45:26;99377.63;;;25.49;47.03
40954;BME280;26686;50.130;8.710;2023-07-29T15:50:28;99384.88;;;25.43;47.33
40954;BME280;26686;50.130;8.710;2023-07-29T15:55:29;99376.38;;;25.39;47.08
40954;BME280;26686;50.130;8.710;2023-07-29T16:00:31;99372.34;;;25.42;46.73
40954;BME280;26686;50.130;8.710;2023-07-29T16:05:32;99372.59;;;25.40;47.03
40954;BME280;26686;50.130;8.710;2023-07-29T16:10:34;99383.25;;;25.42;46.95
40954;BME280;26686;50.130;8.710;2023-07-29T16:15:35;99377.78;;;25.42;48.34
40954;BME280;26686;50.130;8.710;2023-07-29T16:20:36;99366.91;;;25.42;47.55
40954;BME280;26686;50.130;8.710;2023-07-29T16:25:38;99370.56;;;25.48;46.86
40954;BME280;26686;50.130;8.710;2023-07-29T16:30:39;99375.31;;;25.40;46.43
40954;BME280;26686;50.130;8.710;2023-07-29T16:35:41;99392.13;;;25.37;46.01
40954;BME280;26686;50.130;8.710;2023-07-29T16:40:43;99379.09;;;25.39;45.82
40954;BME280;26686;50.130;8.710;2023-07-29T16:46:04;99372.47;;;25.35;46.33
40954;BME280;26686;50.130;8.710;2023-07-29T16:51:05;99371.91;;;25.33;46.34
40954;BME280;26686;50.130;8.710;2023-07-29T16:56:09;99381.25;;;25.26;46.19
40954;BME280;26686;50.130;8.710;2023-07-29T17:01:10;99385.75;;;25.20;46.88
40954;BME280;26686;50.130;8.710;2023-07-29T17:06:12;99388.72;;;25.18;47.31
40954;BME280;26686;50.130;8.710;2023-07-29T17:11:13;99385.75;;;25.20;47.43
40954;BME280;26686;50.130;8.710;2023-07-29T17:16:15;99384.09;;;25.19;46.37
40954;BME280;26686;50.130;8.710;2023-07-29T17:21:16;99383.50;;;25.17;47.01
40954;BME280;26686;50.130;8.710;2023-07-29T17:26:18;99385.91;;;25.13;47.16
40954;BME280;26686;50.130;8.710;2023-07-29T17:31:19;99401.28;;;25.08;48.00
40954;BME280;26686;50.130;8.710;2023-07-29T17:36:21;99386.97;;;25.00;46.76
40954;BME280;26686;50.130;8.710;2023-07-29T17:41:23;99383.19;;;25.01;48.17
40954;BME280;26686;50.130;8.710;2023-07-29T17:46:24;99386.97;;;25.00;47.36
40954;BME280;26686;50.130;8.710;2023-07-29T17:51:26;99384.41;;;24.94;47.76
40954;BME280;26686;50.130;8.710;2023-07-29T17:56:27;99388.41;;;24.91;48.10
40954;BME280;26686;50.130;8.710;2023-07-29T18:01:29;99394.09;;;24.90;48.54
40954;BME280;26686;50.130;8.710;2023-07-29T18:06:30;99391.50;;;24.83;48.81
40954;BME280;26686;50.130;8.710;2023-07-29T18:11:32;99389.50;;;24.78;48.14
40954;BME280;26686;50.130;8.710;2023-07-29T18:16:34;99397.88;;;24.77;49.50
40954;BME280;26686;50.130;8.710;2023-07-29T18:21:37;99408.69;;;24.72;49.27
40954;BME280;26686;50.130;8.710;2023-07-29T18:26:38;99401.47;;;24.65;48.61
40954;BME280;26686;50.130;8.710;2023-07-29T18:31:40;99402.19;;;24.61;49.13
40954;BME280;26686;50.130;8.710;2023-07-29T18:36:42;99412.22;;;24.60;50.58
40954;BME280;26686;50.130;8.710;2023-07-29T18:41:46;99412.31;;;24.53;50.38
40954;BME280;26686;50.130;8.710;2023-07-29T18:46:48;99426.72;;;24.54;51.42
40954;BME280;26686;50.130;8.710;2023-07-29T18:51:51;99424.47;;;24.51;51.86
40954;BME280;26686;50.130;8.710;2023-07-29T18:56:53;99431.22;;;24.48;51.97
40954;BME280;26686;50.130;8.710;2023-07-29T19:01:54;99438.19;;;24.44;52.83
40954;BME280;26686;50.130;8.710;2023-07-29T19:06:56;99442.91;;;24.37;52.99
40954;BME280;26686;50.130;8.710;2023-07-29T19:11:57;99433.69;;;24.26;52.16
40954;BME280;26686;50.130;8.710;2023-07-29T19:16:58;99447.25;;;24.14;52.77
40954;BME280;26686;50.130;8.710;2023-07-29T19:22:00;99454.13;;;24.17;52.18
40954;BME280;26686;50.130;8.710;2023-07-29T19:27:01;99452.53;;;24.09;52.76
40954;BME280;26686;50.130;8.710;2023-07-29T19:32:07;99468.03;;;24.09;52.29
40954;BME280;26686;50.130;8.710;2023-07-29T19:37:09;99468.59;;;23.99;52.81
40954;BME280;26686;50.130;8.710;2023-07-29T19:42:12;99473.19;;;23.98;53.20
40954;BME280;26686;50.130;8.710;2023-07-29T19:47:13;99456.28;;;23.96;53.99
40954;BME280;26686;50.130;8.710;2023-07-29T19:52:15;99470.81;;;23.90;53.44
40954;BME280;26686;50.130;8.710;2023-07-29T19:57:17;99472.91;;;23.88;54.38
40954;BME280;26686;50.130;8.710;2023-07-29T20:02:18;99459.16;;;23.83;54.03
40954;BME280;26686;50.130;8.710;2023-07-29T20:07:20;99459.78;;;23.85;55.11
40954;BME280;26686;50.130;8.710;2023-07-29T20:12:22;99461.28;;;23.81;56.24
40954;BME280;26686;50.130;8.710;2023-07-29T20:17:23;99465.88;;;23.80;56.59
40954;BME280;26686;50.130;8.710;2023-07-29T20:22:25;99470.94;;;23.77;56.43
40954;BME280;26686;50.130;8.710;2023-07-29T20:27:26;99468.06;;;23.72;57.42
40954;BME280;26686;50.130;8.710;2023-07-29T20:32:28;99475.63;;;23.70;56.47
40954;BME280;26686;50.130;8.710;2023-07-29T20:37:29;99488.47;;;23.62;56.42
40954;BME280;26686;50.130;8.710;2023-07-29T20:42:31;99489.09;;;23.64;58.08
40954;BME280;26686;50.130;8.710;2023-07-29T20:47:32;99493.06;;;23.62;58.03
40954;BME280;26686;50.130;8.710;2023-07-29T20:52:35;99485.00;;;23.55;59.01
40954;BME280;26686;50.130;8.710;2023-07-29T20:57:36;99496.25;;;23.59;59.22
40954;BME280;26686;50.130;8.710;2023-07-29T21:02:38;99488.16;;;23.52;58.75
40954;BME280;26686;50.130;8.710;2023-07-29T21:07:39;99501.38;;;23.48;59.02
40954;BME280;26686;50.130;8.710;2023-07-29T21:12:42;99513.50;;;23.46;58.56
40954;BME280;26686;50.130;8.710;2023-07-29T21:17:43;99506.88;;;23.42;59.33
40954;BME280;26686;50.130;8.710;2023-07-29T21:22:45;99500.84;;;23.40;58.61
40954;BME280;26686;50.130;8.710;2023-07-29T21:27:46;99494.44;;;23.34;59.21
40954;BME280;26686;50.130;8.710;2023-07-29T21:32:48;99496.31;;;23.34;59.07
40954;BME280;26686;50.130;8.710;2023-07-29T21:37:49;99505.50;;;23.33;59.19
40954;BME280;26686;50.130;8.710;2023-07-29T21:42:51;99523.34;;;23.28;59.88
40954;BME280;26686;50.130;8.710;2023-07-29T21:47:52;99523.75;;;23.25;60.00
40954;BME280;26686;50.130;8.710;2023-07-29T21:52:54;99510.47;;;23.17;61.33
40954;BME280;26686;50.130;8.710;2023-07-29T21:57:55;99527.38;;;23.19;61.29
40954;BME280;26686;50.130;8.710;2023-07-29T22:02:56;99533.25;;;23.16;62.15
40954;BME280;26686;50.130;8.710;2023-07-29T22:07:58;99531.84;;;23.14;61.13
40954;BME280;26686;50.130;8.710;2023-07-29T22:13:03;99541.66;;;23.08;61.13
40954;BME280;26686;50.130;8.710;2023-07-29T22:18:04;99546.03;;;23.09;62.47
40954;BME280;26686;50.130;8.710;2023-07-29T22:23:06;99545.41;;;23.07;61.29
40954;BME280;26686;50.130;8.710;2023-07-29T22:28:07;99541.91;;;23.00;62.19
40954;BME280;26686;50.130;8.710;2023-07-29T22:33:10;99535.31;;;22.95;63.22
40954;BME280;26686;50.130;8.710;2023-07-29T22:38:13;99519.47;;;22.92;64.08
40954;BME280;26686;50.130;8.710;2023-07-29T22:43:14;99512.97;;;22.93;64.83
40954;BME280;26686;50.130;8.710;2023-07-29T22:48:16;99515.91;;;22.92;64.55
40954;BME280;26686;50.130;8.710;2023-07-29T22:53:17;99522.00;;;22.87;65.31
40954;BME280;26686;50.130;8.710;2023-07-29T22:58:19;99530.75;;;22.89;65.90
40954;BME280;26686;50.130;8.710;2023-07-29T23:03:22;99523.72;;;22.82;65.97
40954;BME280;26686;50.130;8.710;2023-07-29T23:08:24;99515.78;;;22.80;65.81
40954;BME280;26686;50.130;8.710;2023-07-29T23:13:25;99517.91;;;22.78;66.98
40954;BME280;26686;50.130;8.710;2023-07-29T23:18:27;99532.50;;;22.77;67.07
40954;BME280;26686;50.130;8.710;2023-07-29T23:23:28;99544.88;;;22.73;66.90
40954;BME280;26686;50.130;8.710;2023-07-29T23:28:30;99536.56;;;22.68;67.84
40954;BME280;26686;50.130;8.710;2023-07-29T23:33:31;99550.13;;;22.68;68.81
40954;BME280;26686;50.130;8.710;2023-07-29T23:38:32;99533.34;;;22.52;68.65
40954;BME280;26686;50.130;8.710;2023-07-29T23:43:34;99523.09;;;22.54;68.50
40954;BME280;26686;50.130;8.710;2023-07-29T23:48:35;99525.22;;;22.46;68.30
40954;BME280;26686;50.130;8.710;2023-07-29T23:53:37;99511.91;;;22.44;69.24
40954;BME280;26686;50.130;8.710;2023-07-29T23:58:38;99523.81;;;22.43;69.45
